createdAt,value
2022-08-01T00:01:58.579Z,1.92
2022-08-01T00:04:25.326Z,2.05
2022-08-01T00:06:51.782Z,2.03
2022-08-01T00:09:24.361Z,1.90
2022-08-01T00:11:59.558Z,2.03
2022-08-01T00:14:32.076Z,1.80
2022-08-01T00:17:03.738Z,2.67
2022-08-01T00:19:33.611Z,2.35
2022-08-01T00:22:00.066Z,2.42
2022-08-01T00:24:26.978Z,2.00
2022-08-01T00:26:53.402Z,1.95
2022-08-01T00:30:12.217Z,2.25
2022-08-01T00:32:06.813Z,2.20
2022-08-01T00:34:33.522Z,2.47
2022-08-01T00:37:01.463Z,2.00
2022-08-01T00:39:27.903Z,2.42
2022-08-01T00:41:59.670Z,2.10
2022-08-01T00:44:26.971Z,2.20
2022-08-01T00:46:53.397Z,2.08
2022-08-01T00:49:19.893Z,2.20
2022-08-01T00:51:46.338Z,1.98
2022-08-01T00:54:13.229Z,2.03
2022-08-01T00:56:43.020Z,2.17
2022-08-01T00:59:10.021Z,1.88
2022-08-01T01:01:39.945Z,2.00
2022-08-01T01:04:08.355Z,2.20
2022-08-01T01:06:35.207Z,2.35
2022-08-01T01:09:03.403Z,2.13
2022-08-01T01:11:32.805Z,1.67
2022-08-01T01:14:05.204Z,2.15
2022-08-01T01:16:32.006Z,2.33
2022-08-01T01:19:03.947Z,2.30
2022-08-01T01:21:49.866Z,2.00
2022-08-01T01:24:18.281Z,2.08
2022-08-01T01:26:50.782Z,1.70
2022-08-01T01:29:23.365Z,2.38
2022-08-01T01:31:56.819Z,2.28
2022-08-01T01:34:24.704Z,1.67
2022-08-01T01:36:55.017Z,2.40
2022-08-01T01:39:22.539Z,2.45
2022-08-01T01:41:49.835Z,1.90
2022-08-01T01:44:17.628Z,2.00
2022-08-01T01:46:44.438Z,1.98
2022-08-01T01:49:11.793Z,2.65
2022-08-01T01:51:39.263Z,2.28
2022-08-01T01:54:06.780Z,1.90
2022-08-01T01:56:34.015Z,2.85
2022-08-01T01:59:01.831Z,1.77
2022-08-01T02:02:05.339Z,2.28
2022-08-01T02:04:16.867Z,2.10
2022-08-01T02:06:44.380Z,2.47
2022-08-01T02:09:11.302Z,1.98
2022-08-01T02:11:39.039Z,1.98
2022-08-01T02:14:25.831Z,2.00
2022-08-01T02:16:52.278Z,1.88
2022-08-01T02:19:19.175Z,1.95
2022-08-01T02:21:47.553Z,2.22
2022-08-01T02:24:15.794Z,2.05
2022-08-01T02:26:45.013Z,2.60
2022-08-01T02:29:14.282Z,2.40
2022-08-01T02:31:41.561Z,2.40
2022-08-01T02:34:10.462Z,2.45
2022-08-01T02:36:37.973Z,2.40
2022-08-01T02:39:07.302Z,2.28
2022-08-01T02:41:34.461Z,2.15
2022-08-01T02:44:04.436Z,2.08
2022-08-01T02:46:36.036Z,2.47
2022-08-01T02:49:03.759Z,2.47
2022-08-01T02:51:31.794Z,2.03
2022-08-01T02:53:58.771Z,2.22
2022-08-01T02:56:35.575Z,2.50
2022-08-01T02:59:10.326Z,2.67
2022-08-01T03:01:37.153Z,2.28
2022-08-01T03:04:06.962Z,2.45
2022-08-01T03:06:34.630Z,2.40
2022-08-01T03:09:02.494Z,2.85
2022-08-01T03:11:29.518Z,2.67
2022-08-01T03:13:56.396Z,2.10
2022-08-01T03:16:24.465Z,2.40
2022-08-01T03:18:52.855Z,2.13
2022-08-01T03:21:20.803Z,2.50
2022-08-01T03:23:53.410Z,2.40
2022-08-01T03:26:21.514Z,2.15
2022-08-01T03:28:49.265Z,2.97
2022-08-01T03:31:16.151Z,2.50
2022-08-01T03:33:42.624Z,3.85
2022-08-01T03:36:11.445Z,2.38
2022-08-01T03:38:40.469Z,2.33
2022-08-01T03:41:10.679Z,2.10
2022-08-01T03:43:39.461Z,1.98
2022-08-01T03:46:08.959Z,2.80
2022-08-01T03:48:37.743Z,2.95
2022-08-01T03:51:04.999Z,2.28
2022-08-01T03:53:33.081Z,2.72
2022-08-01T03:56:01.003Z,2.70
2022-08-01T03:58:27.991Z,2.42
2022-08-01T04:00:54.939Z,2.55
2022-08-01T04:03:21.618Z,2.38
2022-08-01T04:05:48.048Z,2.13
2022-08-01T04:08:14.540Z,2.42
2022-08-01T04:10:41.102Z,2.95
2022-08-01T04:13:07.775Z,2.88
2022-08-01T04:15:34.316Z,2.80
2022-08-01T04:18:00.750Z,2.47
2022-08-01T04:20:27.237Z,2.63
2022-08-01T04:22:53.717Z,2.90
2022-08-01T04:25:27.159Z,2.47
2022-08-01T04:27:54.174Z,2.75
2022-08-01T04:30:22.991Z,2.75
2022-08-01T04:32:50.880Z,2.88
2022-08-01T04:35:23.026Z,2.63
2022-08-01T04:38:09.609Z,2.53
2022-08-01T04:40:36.985Z,5.03
2022-08-01T04:43:03.741Z,2.85
2022-08-01T04:45:30.214Z,2.47
2022-08-01T04:47:57.939Z,2.35
2022-08-01T04:50:25.398Z,2.85
2022-08-01T04:52:52.582Z,2.45
2022-08-01T04:55:18.988Z,2.47
2022-08-01T04:57:47.548Z,2.58
2022-08-01T05:00:14.763Z,2.33
2022-08-01T05:02:41.247Z,3.00
2022-08-01T05:05:07.816Z,3.00
2022-08-01T05:07:44.324Z,2.83
2022-08-01T05:10:11.797Z,2.75
2022-08-01T05:12:38.251Z,2.67
2022-08-01T05:15:04.915Z,2.97
2022-08-01T05:17:32.630Z,2.92
2022-08-01T05:19:59.087Z,2.55
2022-08-01T05:22:26.581Z,3.33
2022-08-01T05:25:09.121Z,2.47
2022-08-01T05:27:40.376Z,2.87
2022-08-01T05:30:08.382Z,2.72
2022-08-01T05:32:34.856Z,2.80
2022-08-01T05:35:01.307Z,2.85
2022-08-01T05:37:28.260Z,2.58
2022-08-01T05:39:54.718Z,2.70
2022-08-01T05:42:22.047Z,2.70
2022-08-01T05:44:48.792Z,2.20
2022-08-01T05:47:15.229Z,2.88
2022-08-01T05:49:41.614Z,2.45
2022-08-01T05:52:08.607Z,3.03
2022-08-01T05:54:35.326Z,2.65
2022-08-01T05:57:02.785Z,2.78
2022-08-01T05:59:30.003Z,2.30
2022-08-01T06:01:56.769Z,2.67
2022-08-01T06:04:23.314Z,2.40
2022-08-01T06:06:49.808Z,2.88
2022-08-01T06:09:16.254Z,2.40
2022-08-01T06:11:42.674Z,2.58
2022-08-01T06:14:09.221Z,2.53
2022-08-01T06:16:35.639Z,2.45
2022-08-01T06:19:02.046Z,2.38
2022-08-01T06:21:28.515Z,2.30
2022-08-01T06:23:54.954Z,2.60
2022-08-01T06:26:21.491Z,2.75
2022-08-01T06:28:47.933Z,2.47
2022-08-01T06:31:15.728Z,2.78
2022-08-01T06:33:42.240Z,3.17
2022-08-01T06:36:08.680Z,2.72
2022-08-01T06:38:38.520Z,2.63
2022-08-01T06:41:04.919Z,3.58
2022-08-01T06:43:32.338Z,4.82
2022-08-01T06:45:58.786Z,3.33
2022-08-01T06:48:25.274Z,3.00
2022-08-01T06:51:08.668Z,2.80
2022-08-01T06:53:36.729Z,3.17
2022-08-01T06:56:03.650Z,3.08
2022-08-01T06:58:30.978Z,2.90
2022-08-01T07:00:58.708Z,2.70
2022-08-01T07:03:26.416Z,2.83
2022-08-01T07:06:12.830Z,2.72
2022-08-01T07:08:41.493Z,2.75
2022-08-01T07:11:07.897Z,3.13
2022-08-01T07:13:36.602Z,3.10
2022-08-01T07:16:10.661Z,3.20
2022-08-01T07:18:37.074Z,3.55
2022-08-01T07:21:04.847Z,2.67
2022-08-01T07:23:34.083Z,2.60
2022-08-01T07:26:03.903Z,2.75
2022-08-01T07:28:30.865Z,2.83
2022-08-01T07:30:57.579Z,2.88
2022-08-01T07:33:24.042Z,2.88
2022-08-01T07:35:50.486Z,2.20
2022-08-01T07:38:19.685Z,3.17
2022-08-01T07:40:46.157Z,2.60
2022-08-01T07:43:12.563Z,2.75
2022-08-01T07:45:39.069Z,2.60
2022-08-01T07:48:13.083Z,2.88
2022-08-01T07:50:39.522Z,2.72
2022-08-01T07:53:06.066Z,2.80
2022-08-01T07:55:32.598Z,2.92
2022-08-01T07:57:59.054Z,2.92
2022-08-01T08:00:25.630Z,3.10
2022-08-01T08:02:52.059Z,3.00
2022-08-01T08:05:58.245Z,2.65
2022-08-01T08:08:05.972Z,2.45
2022-08-01T08:10:32.545Z,2.58
2022-08-01T08:12:59.086Z,2.42
2022-08-01T08:15:25.532Z,2.53
2022-08-01T08:17:54.949Z,2.17
2022-08-01T08:20:27.978Z,2.28
2022-08-01T08:22:55.177Z,2.38
2022-08-01T08:25:26.769Z,2.28
2022-08-01T08:27:53.485Z,1.80
2022-08-01T08:30:20.090Z,2.38
2022-08-01T08:32:48.906Z,2.08
2022-08-01T08:35:20.067Z,1.90
2022-08-01T08:37:50.787Z,2.08
2022-08-01T08:40:24.373Z,2.22
2022-08-01T08:42:51.322Z,2.20
2022-08-01T08:45:17.753Z,1.90
2022-08-01T08:47:44.774Z,2.20
2022-08-01T08:50:11.350Z,1.73
2022-08-01T08:52:39.111Z,2.05
2022-08-01T08:55:06.011Z,2.08
2022-08-01T08:57:32.715Z,1.90
2022-08-01T08:59:59.311Z,1.83
2022-08-01T09:02:25.809Z,1.60
2022-08-01T09:04:52.449Z,1.30
2022-08-01T09:07:19.688Z,1.85
2022-08-01T09:09:46.215Z,1.60
2022-08-01T09:12:16.933Z,1.08
2022-08-01T09:14:47.392Z,1.77
2022-08-01T09:17:14.127Z,1.27
2022-08-01T09:19:41.956Z,1.50
2022-08-01T09:22:13.204Z,1.35
2022-08-01T09:24:41.016Z,1.13
2022-08-01T09:27:22.282Z,1.15
2022-08-01T09:29:49.747Z,1.08
2022-08-01T09:32:27.250Z,0.77
2022-08-01T09:34:54.924Z,0.80
2022-08-01T09:37:37.266Z,1.17
2022-08-01T09:40:04.179Z,1.27
2022-08-01T09:42:30.611Z,1.00
2022-08-01T09:44:57.029Z,0.88
2022-08-01T09:47:38.758Z,0.98
2022-08-01T09:50:10.457Z,1.10
2022-08-01T09:52:37.686Z,0.95
2022-08-01T09:55:07.379Z,0.82
2022-08-01T09:57:34.055Z,0.93
2022-08-01T10:00:01.969Z,1.15
2022-08-01T10:02:40.142Z,1.20
2022-08-01T10:05:09.100Z,0.82
2022-08-01T10:07:43.451Z,1.08
2022-08-01T10:10:15.065Z,1.08
2022-08-01T10:12:45.255Z,0.95
2022-08-01T10:15:14.979Z,0.90
2022-08-01T10:17:50.632Z,1.13
2022-08-01T10:20:30.705Z,0.90
2022-08-01T10:23:00.210Z,0.82
2022-08-01T10:25:41.995Z,1.08
2022-08-01T10:28:18.226Z,0.80
2022-08-01T10:30:49.456Z,1.05
2022-08-01T10:33:20.021Z,1.35
2022-08-01T10:36:03.443Z,1.30
2022-08-01T10:38:35.707Z,0.88
2022-08-01T10:41:06.054Z,1.33
2022-08-01T10:43:33.182Z,1.10
2022-08-01T10:46:02.008Z,1.10
2022-08-01T10:48:35.788Z,1.05
2022-08-01T10:51:03.459Z,1.05
2022-08-01T10:53:31.688Z,1.08
2022-08-01T10:56:12.766Z,1.00
2022-08-01T10:58:44.194Z,1.08
2022-08-01T11:01:16.871Z,0.90
2022-08-01T11:03:57.113Z,1.02
2022-08-01T11:06:26.605Z,1.20
2022-08-01T11:08:54.870Z,0.90
2022-08-01T11:11:22.088Z,1.35
2022-08-01T11:13:58.894Z,1.20
2022-08-01T11:16:29.906Z,1.33
2022-08-01T11:18:56.350Z,1.30
2022-08-01T11:21:56.837Z,1.23
2022-08-01T11:24:11.504Z,1.40
2022-08-01T11:26:39.859Z,0.98
2022-08-01T11:29:20.546Z,0.73
2022-08-01T11:31:47.952Z,0.80
2022-08-01T11:34:15.623Z,1.45
2022-08-01T11:36:58.352Z,1.25
2022-08-01T11:39:25.636Z,0.88
2022-08-01T11:41:53.702Z,1.00
2022-08-01T11:44:24.972Z,1.20
2022-08-01T11:46:57.533Z,0.98
2022-08-01T11:51:57.626Z,1.20
2022-08-01T11:54:35.128Z,1.40
2022-08-01T11:57:07.567Z,1.05
2022-08-01T12:00:02.659Z,1.17
2022-08-01T12:02:35.032Z,1.35
2022-08-01T12:05:01.662Z,1.13
2022-08-01T12:07:31.138Z,1.40
2022-08-01T12:09:59.046Z,1.08
2022-08-01T12:12:25.766Z,1.50
2022-08-01T12:14:56.301Z,2.05
2022-08-01T12:17:58.096Z,3.42
2022-08-01T12:20:29.621Z,2.03
2022-08-01T12:22:57.394Z,1.25
2022-08-01T12:25:24.081Z,1.30
2022-08-01T12:27:55.734Z,1.40
2022-08-01T12:30:26.161Z,1.40
2022-08-01T12:32:53.949Z,1.10
2022-08-01T12:35:23.934Z,1.30
2022-08-01T12:37:52.346Z,1.67
2022-08-01T12:40:22.962Z,1.40
2022-08-01T12:42:53.453Z,1.30
2022-08-01T12:45:20.913Z,1.10
2022-08-01T12:47:49.036Z,0.93
2022-08-01T12:50:17.163Z,1.30
2022-08-01T12:52:43.708Z,0.95
2022-08-01T12:55:11.716Z,1.58
2022-08-01T12:57:39.801Z,1.38
2022-08-01T13:00:10.492Z,0.90
2022-08-01T13:02:37.786Z,1.20
2022-08-01T13:05:05.170Z,1.00
2022-08-01T13:07:45.046Z,1.10
2022-08-01T13:10:12.733Z,0.90
2022-08-01T13:12:40.440Z,0.90
2022-08-01T13:15:22.207Z,1.08
2022-08-01T13:17:49.978Z,1.13
2022-08-01T13:20:23.294Z,1.33
2022-08-01T13:22:49.718Z,1.08
2022-08-01T13:25:19.811Z,0.80
2022-08-01T13:27:53.020Z,0.73
2022-08-01T13:30:21.221Z,1.15
2022-08-01T13:33:00.331Z,1.10
2022-08-01T13:35:27.222Z,0.93
2022-08-01T13:37:54.135Z,1.15
2022-08-01T13:40:25.159Z,1.33
2022-08-01T13:42:51.579Z,1.13
2022-08-01T13:45:18.027Z,0.80
2022-08-01T13:48:11.673Z,1.00
2022-08-01T13:50:35.445Z,1.25
2022-08-01T13:53:01.937Z,1.00
2022-08-01T13:55:34.286Z,1.20
2022-08-01T13:58:01.744Z,1.13
2022-08-01T14:00:28.171Z,1.27
2022-08-01T14:02:54.606Z,1.10
2022-08-01T14:05:21.150Z,1.08
2022-08-01T14:07:56.525Z,0.95
2022-08-01T14:10:23.319Z,1.02
2022-08-01T14:12:50.494Z,1.08
2022-08-01T14:15:18.627Z,1.58
2022-08-01T14:18:03.660Z,0.90
2022-08-01T14:20:32.525Z,1.58
2022-08-01T14:22:58.977Z,1.00
2022-08-01T14:26:01.479Z,1.50
2022-08-01T14:28:11.918Z,1.08
2022-08-01T14:30:38.427Z,1.08
2022-08-01T14:33:04.895Z,1.10
2022-08-01T14:36:03.500Z,1.20
2022-08-01T14:38:21.873Z,1.23
2022-08-01T14:40:58.362Z,1.20
2022-08-01T14:43:29.416Z,1.25
2022-08-01T14:45:59.331Z,1.00
2022-08-01T14:48:26.213Z,1.10
2022-08-01T14:50:52.770Z,1.13
2022-08-01T14:53:19.242Z,1.50
2022-08-01T14:55:45.687Z,1.85
2022-08-01T14:58:12.172Z,2.53
2022-08-01T15:00:38.576Z,4.60
2022-08-01T15:03:05.027Z,2.92
2022-08-01T15:05:33.306Z,1.17
2022-08-01T15:07:59.956Z,1.45
2022-08-01T15:10:26.491Z,1.40
2022-08-01T15:12:52.974Z,1.40
2022-08-01T15:15:20.414Z,1.08
2022-08-01T15:17:47.106Z,1.08
2022-08-01T15:20:13.558Z,0.90
2022-08-01T15:22:40.260Z,0.80
2022-08-01T15:25:07.003Z,1.23
2022-08-01T15:27:33.475Z,1.48
2022-08-01T15:30:00.017Z,0.80
2022-08-01T15:32:26.541Z,1.05
2022-08-01T15:34:53.035Z,0.90
2022-08-01T15:37:19.744Z,0.80
2022-08-01T15:39:46.313Z,1.17
2022-08-01T15:42:13.393Z,1.38
2022-08-01T15:44:46.591Z,0.82
2022-08-01T15:47:13.235Z,1.20
2022-08-01T15:49:39.663Z,1.52
2022-08-01T15:52:09.512Z,1.10
2022-08-01T15:54:49.077Z,1.08
2022-08-01T15:57:15.529Z,1.05
2022-08-01T15:59:42.166Z,1.52
2022-08-01T16:02:08.984Z,1.00
2022-08-01T16:04:36.321Z,1.45
2022-08-01T16:07:06.229Z,1.02
2022-08-01T16:09:32.738Z,1.30
2022-08-01T16:11:59.251Z,1.20
2022-08-01T16:14:25.711Z,1.00
2022-08-01T16:16:53.881Z,1.17
2022-08-01T16:19:20.540Z,1.20
2022-08-01T16:21:47.835Z,0.98
2022-08-01T16:24:14.450Z,1.38
2022-08-01T16:26:41.213Z,1.20
2022-08-01T16:29:07.637Z,1.48
2022-08-01T16:31:37.505Z,1.23
2022-08-01T16:34:13.090Z,0.98
2022-08-01T16:36:41.039Z,1.17
2022-08-01T16:39:07.752Z,1.30
2022-08-01T16:41:37.577Z,1.25
2022-08-01T16:44:04.358Z,1.20
2022-08-01T16:46:32.971Z,1.30
2022-08-01T16:48:59.500Z,1.08
2022-08-01T16:51:26.170Z,1.17
2022-08-01T16:53:52.640Z,1.40
2022-08-01T16:56:20.183Z,1.05
2022-08-01T16:58:46.682Z,1.10
2022-08-01T17:01:57.849Z,1.13
2022-08-01T17:04:01.528Z,1.40
2022-08-01T17:06:29.370Z,1.48
2022-08-01T17:08:55.991Z,1.10
2022-08-01T17:11:22.487Z,1.48
2022-08-01T17:13:49.032Z,1.27
2022-08-01T17:16:15.494Z,1.65
2022-08-01T17:18:42.064Z,1.58
2022-08-01T17:21:08.485Z,1.40
2022-08-01T17:23:35.858Z,1.38
2022-08-01T17:26:02.578Z,1.40
2022-08-01T17:28:30.385Z,1.15
2022-08-01T17:30:56.990Z,1.20
2022-08-01T17:33:23.414Z,1.20
2022-08-01T17:35:49.904Z,1.17
2022-08-01T17:38:19.505Z,1.20
2022-08-01T17:40:45.986Z,1.38
2022-08-01T17:43:13.209Z,1.13
2022-08-01T17:45:51.044Z,1.40
2022-08-01T17:48:18.351Z,1.70
2022-08-01T17:50:45.796Z,1.23
2022-08-01T17:53:12.490Z,1.33
2022-08-01T17:55:55.445Z,1.10
2022-08-01T17:58:49.186Z,1.27
2022-08-01T18:01:10.430Z,1.35
2022-08-01T18:03:41.477Z,1.20
2022-08-01T18:06:08.530Z,1.50
2022-08-01T18:08:35.677Z,1.50
2022-08-01T18:11:02.200Z,1.20
2022-08-01T18:13:29.419Z,1.30
2022-08-01T18:15:56.639Z,1.40
2022-08-01T18:18:33.577Z,1.25
2022-08-01T18:21:04.466Z,1.30
2022-08-01T18:23:32.147Z,1.73
2022-08-01T18:26:01.440Z,1.73
2022-08-01T18:28:36.621Z,1.30
2022-08-01T18:31:08.947Z,1.40
2022-08-01T18:33:35.785Z,1.48
2022-08-01T18:36:04.244Z,1.50
2022-08-01T18:38:32.973Z,1.65
2022-08-01T18:41:00.263Z,1.58
2022-08-01T18:43:26.858Z,1.13
2022-08-01T18:45:53.289Z,1.52
2022-08-01T18:48:20.153Z,1.23
2022-08-01T18:50:46.609Z,1.60
2022-08-01T18:53:13.098Z,2.30
2022-08-01T18:55:39.543Z,1.48
2022-08-01T18:58:06.062Z,1.55
2022-08-01T19:00:32.570Z,1.48
2022-08-01T19:02:59.061Z,1.30
2022-08-01T19:05:25.473Z,1.88
2022-08-01T19:08:06.617Z,1.42
2022-08-01T19:10:34.194Z,1.75
2022-08-01T19:13:01.304Z,1.50
2022-08-01T19:15:27.733Z,1.75
2022-08-01T19:17:54.159Z,1.63
2022-08-01T19:20:20.596Z,1.20
2022-08-01T19:22:47.108Z,1.52
2022-08-01T19:25:14.539Z,1.85
2022-08-01T19:27:43.950Z,1.60
2022-08-01T19:30:10.786Z,1.70
2022-08-01T19:32:37.377Z,1.45
2022-08-01T19:35:08.064Z,2.17
2022-08-01T19:37:35.247Z,1.40
2022-08-01T19:40:01.739Z,1.77
2022-08-01T19:42:28.802Z,1.38
2022-08-01T19:44:55.471Z,1.50
2022-08-01T19:47:21.967Z,1.90
2022-08-01T19:50:11.081Z,2.33
2022-08-01T19:52:36.405Z,2.33
2022-08-01T19:55:03.497Z,1.75
2022-08-01T19:57:45.264Z,1.63
2022-08-01T20:00:23.465Z,1.75
2022-08-01T20:02:56.101Z,1.63
2022-08-01T20:05:25.872Z,1.48
2022-08-01T20:07:53.740Z,1.65
2022-08-01T20:10:21.081Z,1.55
2022-08-01T20:12:47.878Z,1.60
2022-08-01T20:15:14.632Z,1.30
2022-08-01T20:17:41.281Z,1.70
2022-08-01T20:20:08.094Z,1.73
2022-08-01T20:22:35.423Z,1.60
2022-08-01T20:25:02.958Z,1.70
2022-08-01T20:27:30.586Z,1.98
2022-08-01T20:29:57.925Z,1.50
2022-08-01T20:32:28.169Z,1.65
2022-08-01T20:34:54.593Z,1.83
2022-08-01T20:38:03.464Z,1.88
2022-08-01T20:40:12.269Z,1.98
2022-08-01T20:42:39.127Z,1.92
2022-08-01T20:45:05.926Z,1.50
2022-08-01T20:47:35.613Z,1.67
2022-08-01T20:50:29.470Z,1.60
2022-08-01T20:53:07.151Z,2.17
2022-08-01T20:55:41.853Z,1.58
2022-08-01T20:58:08.479Z,2.00
2022-08-01T21:00:35.402Z,2.10
2022-08-01T21:03:08.511Z,1.70
2022-08-01T21:05:41.339Z,2.13
2022-08-01T21:08:20.226Z,1.83
2022-08-01T21:10:47.254Z,2.00
2022-08-01T21:13:23.719Z,2.00
2022-08-01T21:16:22.090Z,2.10
2022-08-01T21:19:18.136Z,2.15
2022-08-01T21:21:48.440Z,2.35
2022-08-01T21:24:16.376Z,2.30
2022-08-01T21:26:43.611Z,2.35
2022-08-01T21:29:10.586Z,2.38
2022-08-01T21:31:40.575Z,2.67
2022-08-01T21:34:08.237Z,2.55
2022-08-01T21:36:35.410Z,2.10
2022-08-01T21:39:03.149Z,2.33
2022-08-01T21:41:56.685Z,2.30
2022-08-01T21:44:17.775Z,2.30
2022-08-01T21:46:44.700Z,2.63
2022-08-01T21:49:11.639Z,2.03
2022-08-01T21:51:52.125Z,1.92
2022-08-01T21:54:27.778Z,2.22
2022-08-01T21:56:54.715Z,2.50
2022-08-01T21:59:21.128Z,2.47
2022-08-01T22:02:04.018Z,2.00
2022-08-01T22:04:37.984Z,2.55
2022-08-01T22:07:05.425Z,1.80
2022-08-01T22:09:32.075Z,2.50
2022-08-01T22:12:01.768Z,1.77
2022-08-01T22:14:29.927Z,2.10
2022-08-01T22:16:57.562Z,1.90
2022-08-01T22:19:44.332Z,2.40
2022-08-01T22:22:44.687Z,2.40
2022-08-01T22:24:57.674Z,2.53
2022-08-01T22:28:08.832Z,2.40
2022-08-01T22:30:12.834Z,2.75
2022-08-01T22:32:40.219Z,2.55
2022-08-01T22:35:08.535Z,2.05
2022-08-01T22:37:56.563Z,2.78
2022-08-01T22:40:22.201Z,2.60
2022-08-01T22:42:59.596Z,2.20
2022-08-01T22:45:32.582Z,2.42
2022-08-01T22:48:04.634Z,2.72
2022-08-01T22:50:40.024Z,2.65
2022-08-01T22:53:15.595Z,2.67
2022-08-01T22:55:58.326Z,2.65
2022-08-01T22:58:27.721Z,2.83
2022-08-01T23:00:55.849Z,3.10
2022-08-01T23:03:48.668Z,3.10
2022-08-01T23:06:18.082Z,2.90
2022-08-01T23:08:46.045Z,2.70
2022-08-01T23:11:12.962Z,3.70
2022-08-01T23:13:39.798Z,3.05
2022-08-01T23:16:06.277Z,2.97
2022-08-01T23:18:32.775Z,2.33
2022-08-01T23:21:01.640Z,2.30
2022-08-01T23:23:31.123Z,2.95
2022-08-01T23:25:58.557Z,3.05
2022-08-01T23:28:26.078Z,2.55
2022-08-01T23:30:52.818Z,3.10
2022-08-01T23:33:19.278Z,2.38
2022-08-01T23:35:45.987Z,2.58
2022-08-01T23:38:15.083Z,2.30
2022-08-01T23:40:42.063Z,2.65
2022-08-01T23:43:16.661Z,2.58
2022-08-01T23:46:03.943Z,2.75
2022-08-01T23:48:30.653Z,2.70
2022-08-01T23:50:57.262Z,2.22
2022-08-01T23:53:24.084Z,1.98
2022-08-01T23:55:57.273Z,2.47
2022-08-01T23:58:24.076Z,2.85
